createdAt,value
2019-02-08T00:00:51.243Z,98348.63
2019-02-08T00:03:23.347Z,98334.34
2019-02-08T00:05:55.444Z,98346.44
2019-02-08T00:08:27.569Z,98349.72
2019-02-08T00:10:59.599Z,98353.42
2019-02-08T00:13:31.562Z,98349.42
2019-02-08T00:16:03.685Z,98348.39
2019-02-08T00:18:35.652Z,98350.24
2019-02-08T00:21:09.575Z,98342.97
2019-02-08T00:23:41.555Z,98343.73
2019-02-08T00:26:13.588Z,98350.53
2019-02-08T00:28:45.569Z,98353.89
2019-02-08T00:31:17.573Z,98351.20
2019-02-08T00:33:49.856Z,98356.13
2019-02-08T00:36:21.839Z,98359.91
2019-02-08T00:38:53.830Z,98363.52
2019-02-08T00:41:25.819Z,98357.51
2019-02-08T00:43:57.767Z,98363.77
2019-02-08T00:46:30.074Z,98357.38
2019-02-08T00:49:02.072Z,98361.45
2019-02-08T00:51:34.089Z,98364.65
2019-02-08T00:54:06.106Z,98352.77
2019-02-08T00:56:38.088Z,98352.16
2019-02-08T00:59:10.371Z,98360.83
2019-02-08T01:01:42.376Z,98357.34
2019-02-08T01:04:14.342Z,98363.35
2019-02-08T01:06:46.341Z,98358.73
2019-02-08T01:09:18.314Z,98362.34
2019-02-08T01:11:50.718Z,98358.47
2019-02-08T01:14:22.699Z,98368.20
2019-02-08T01:16:54.719Z,98369.75
2019-02-08T01:19:26.773Z,98369.65
2019-02-08T01:21:58.769Z,98368.19
2019-02-08T01:24:30.734Z,98364.14
2019-02-08T01:27:02.927Z,98361.29
2019-02-08T01:29:34.891Z,98375.24
2019-02-08T01:32:06.920Z,98370.19
2019-02-08T01:34:38.882Z,98371.56
2019-02-08T01:37:10.865Z,98377.00
2019-02-08T01:39:42.855Z,98373.36
2019-02-08T01:42:14.818Z,98385.45
2019-02-08T01:44:46.799Z,98380.19
2019-02-08T01:47:18.761Z,98377.16
2019-02-08T01:49:50.792Z,98385.81
2019-02-08T01:52:22.752Z,98386.03
2019-02-08T01:54:54.716Z,98382.28
2019-02-08T01:57:26.699Z,98387.55
2019-02-08T01:59:58.680Z,98386.38
2019-02-08T02:02:30.764Z,98382.97
2019-02-08T02:05:03.042Z,98381.94
2019-02-08T02:07:35.030Z,98387.74
2019-02-08T02:10:11.485Z,98393.80
2019-02-08T02:12:43.469Z,98391.56
2019-02-08T02:15:15.454Z,98387.64
2019-02-08T02:17:47.402Z,98388.62
2019-02-08T02:20:21.153Z,98386.92
2019-02-08T02:22:53.216Z,98380.70
2019-02-08T02:25:25.184Z,98379.06
2019-02-08T02:27:57.148Z,98382.05
2019-02-08T02:30:31.145Z,98375.89
2019-02-08T02:33:05.962Z,98383.34
2019-02-08T02:35:37.979Z,98384.95
2019-02-08T02:38:10.033Z,98385.92
2019-02-08T02:40:42.002Z,98392.40
2019-02-08T02:43:13.991Z,98382.14
2019-02-08T02:45:45.967Z,98392.52
2019-02-08T02:48:17.955Z,98384.74
2019-02-08T02:50:49.970Z,98395.78
2019-02-08T02:53:22.820Z,98398.64
2019-02-08T02:55:54.815Z,98396.13
2019-02-08T02:58:26.802Z,98406.14
2019-02-08T03:00:58.772Z,98394.29
2019-02-08T03:03:30.756Z,98396.31
2019-02-08T03:06:02.729Z,98392.56
2019-02-08T03:08:34.760Z,98399.84
2019-02-08T03:11:06.777Z,98391.77
2019-02-08T03:13:38.732Z,98396.23
2019-02-08T03:16:10.713Z,98388.59
2019-02-08T03:18:42.666Z,98386.28
2019-02-08T03:21:14.682Z,98393.13
2019-02-08T03:23:46.628Z,98395.64
2019-02-08T03:26:18.636Z,98398.83
2019-02-08T03:28:50.928Z,98389.82
2019-02-08T03:31:22.964Z,98396.13
2019-02-08T03:33:54.925Z,98392.42
2019-02-08T03:36:26.896Z,98393.56
2019-02-08T03:38:58.875Z,98391.33
2019-02-08T03:41:30.862Z,98386.82
2019-02-08T03:44:03.017Z,98396.42
2019-02-08T03:46:35.008Z,98395.76
2019-02-08T03:49:07.034Z,98392.85
2019-02-08T03:51:39.034Z,98399.23
2019-02-08T03:54:11.091Z,98392.09
2019-02-08T03:56:43.057Z,98386.29
2019-02-08T03:59:15.034Z,98386.84
2019-02-08T04:01:46.993Z,98380.66
2019-02-08T04:04:18.972Z,98385.72
2019-02-08T04:06:50.947Z,98375.79
2019-02-08T04:09:22.929Z,98377.21
2019-02-08T04:11:54.896Z,98380.56
2019-02-08T04:14:26.896Z,98382.61
2019-02-08T04:16:58.848Z,98376.63
2019-02-08T04:19:30.838Z,98368.83
2019-02-08T04:22:02.834Z,98365.77
2019-02-08T04:24:34.835Z,98370.82
2019-02-08T04:27:06.857Z,98372.14
2019-02-08T04:29:38.880Z,98371.86
2019-02-08T04:32:10.897Z,98378.45
2019-02-08T04:34:42.883Z,98375.88
2019-02-08T04:37:14.852Z,98392.87
2019-02-08T04:39:46.868Z,98389.38
2019-02-08T04:42:18.872Z,98381.02
2019-02-08T04:44:50.873Z,98389.73
2019-02-08T04:47:22.851Z,98391.09
2019-02-08T04:49:54.852Z,98385.53
2019-02-08T04:52:26.834Z,98395.13
2019-02-08T04:54:58.808Z,98398.53
2019-02-08T04:57:31.046Z,98400.12
2019-02-08T05:00:06.448Z,98401.63
2019-02-08T05:02:38.468Z,98403.23
2019-02-08T05:05:10.743Z,98401.59
2019-02-08T05:07:42.755Z,98396.62
2019-02-08T05:10:16.980Z,98396.56
2019-02-08T05:12:49.105Z,98393.89
2019-02-08T05:15:23.095Z,98390.63
2019-02-08T05:17:55.626Z,98398.70
2019-02-08T05:20:27.751Z,98399.38
2019-02-08T05:22:59.695Z,98402.14
2019-02-08T05:25:31.680Z,98397.97
2019-02-08T05:28:03.946Z,98394.05
2019-02-08T05:30:35.924Z,98395.84
2019-02-08T05:33:07.956Z,98395.55
2019-02-08T05:35:39.919Z,98388.27
2019-02-08T05:38:11.867Z,98386.63
2019-02-08T05:40:43.868Z,98390.95
2019-02-08T05:43:15.812Z,98387.59
2019-02-08T05:45:47.799Z,98388.05
2019-02-08T05:48:19.798Z,98386.20
2019-02-08T05:50:51.815Z,98380.77
2019-02-08T05:53:23.792Z,98384.27
2019-02-08T05:55:55.783Z,98387.98
2019-02-08T05:58:27.781Z,98390.72
2019-02-08T06:00:59.793Z,98385.30
2019-02-08T06:03:31.825Z,98384.80
2019-02-08T06:06:04.354Z,98390.45
2019-02-08T06:08:36.346Z,98375.16
2019-02-08T06:11:08.333Z,98382.20
2019-02-08T06:13:40.304Z,98382.20
2019-02-08T06:16:12.283Z,98382.36
2019-02-08T06:18:44.253Z,98383.75
2019-02-08T06:21:16.217Z,98384.34
2019-02-08T06:23:48.191Z,98387.41
2019-02-08T06:26:20.323Z,98388.67
2019-02-08T06:28:52.308Z,98394.53
2019-02-08T06:31:24.320Z,98398.53
2019-02-08T06:33:56.312Z,98387.77
2019-02-08T06:36:28.280Z,98393.27
2019-02-08T06:39:00.297Z,98386.30
2019-02-08T06:41:32.312Z,98390.08
2019-02-08T06:44:04.624Z,98398.03
2019-02-08T06:46:36.588Z,98402.48
2019-02-08T06:49:08.629Z,98398.16
2019-02-08T06:51:40.640Z,98398.31
2019-02-08T06:54:12.630Z,98393.34
2019-02-08T06:57:10.348Z,98403.14
2019-02-08T07:00:00.519Z,98403.34
2019-02-08T07:02:55.101Z,98402.84
2019-02-08T07:05:45.064Z,98405.66
2019-02-08T07:08:36.978Z,98394.66
2019-02-08T07:11:21.160Z,98398.90
2019-02-08T07:14:15.592Z,98406.63
2019-02-08T07:17:10.117Z,98406.77
2019-02-08T07:19:57.645Z,98404.33
2019-02-08T07:22:49.223Z,98399.19
2019-02-08T07:25:49.926Z,98406.95
2019-02-08T07:28:30.663Z,98406.14
2019-02-08T07:31:22.410Z,98408.33
2019-02-08T07:34:17.031Z,98406.15
2019-02-08T07:37:06.361Z,98410.06
2019-02-08T07:40:11.178Z,98407.15
2019-02-08T07:43:01.882Z,98400.66
2019-02-08T07:46:10.241Z,98406.80
2019-02-08T07:49:02.269Z,98401.91
2019-02-08T07:52:09.051Z,98406.97
2019-02-08T07:55:00.736Z,98410.42
2019-02-08T07:57:55.254Z,98421.74
2019-02-08T08:00:56.281Z,98418.06
2019-02-08T08:03:46.391Z,98419.28
2019-02-08T08:06:31.550Z,98414.03
2019-02-08T08:09:15.676Z,98411.00
2019-02-08T08:12:07.385Z,98413.52
2019-02-08T08:14:58.293Z,98407.36
2019-02-08T08:17:55.874Z,98411.38
2019-02-08T08:20:42.477Z,98413.75
2019-02-08T08:23:26.239Z,98407.05
2019-02-08T08:26:19.222Z,98414.13
2019-02-08T08:29:08.562Z,98409.38
2019-02-08T08:32:01.988Z,98415.80
2019-02-08T08:35:06.009Z,98413.17
2019-02-08T08:38:22.721Z,98411.98
2019-02-08T08:41:39.329Z,98400.87
2019-02-08T08:44:55.274Z,98401.49
2019-02-08T08:48:26.973Z,98398.25
2019-02-08T08:51:41.090Z,98396.73
2019-02-08T08:54:59.747Z,98407.91
2019-02-08T08:58:04.802Z,98400.02
2019-02-08T09:01:00.177Z,98396.47
2019-02-08T09:04:12.390Z,98395.02
2019-02-08T09:07:21.136Z,98398.23
2019-02-08T09:10:34.998Z,98405.31
2019-02-08T09:13:57.420Z,98411.32
2019-02-08T09:17:19.097Z,98405.44
2019-02-08T09:20:23.812Z,98391.08
2019-02-08T09:23:24.659Z,98382.17
2019-02-08T09:26:55.622Z,98380.06
2019-02-08T09:30:04.162Z,98373.84
2019-02-08T09:33:07.559Z,98365.67
2019-02-08T09:36:47.219Z,98355.09
2019-02-08T09:40:06.631Z,98349.23
2019-02-08T09:43:29.759Z,98345.60
2019-02-08T09:46:28.650Z,98350.16
2019-02-08T09:49:26.404Z,98347.28
2019-02-08T09:53:10.784Z,98350.61
2019-02-08T09:56:19.223Z,98343.97
2019-02-08T09:59:44.866Z,98344.98
2019-02-08T10:03:16.655Z,98356.30
2019-02-08T10:06:26.597Z,98342.97
2019-02-08T10:09:35.214Z,98336.12
2019-02-08T10:12:30.535Z,98333.97
2019-02-08T10:15:32.510Z,98342.86
2019-02-08T10:19:07.700Z,98343.12
2019-02-08T10:22:33.128Z,98340.16
2019-02-08T10:26:05.522Z,98349.44
2019-02-08T10:29:24.440Z,98349.25
2019-02-08T10:32:25.611Z,98341.24
2019-02-08T10:35:35.090Z,98333.14
2019-02-08T10:39:00.915Z,98328.04
2019-02-08T10:42:16.436Z,98331.63
2019-02-08T10:45:42.304Z,98332.34
2019-02-08T10:48:52.160Z,98335.11
2019-02-08T10:52:04.604Z,98330.34
2019-02-08T10:55:13.219Z,98322.22
2019-02-08T10:58:37.790Z,98322.13
2019-02-08T11:02:06.888Z,98317.64
2019-02-08T11:05:15.605Z,98314.16
2019-02-08T11:08:37.769Z,98305.07
2019-02-08T11:11:50.810Z,98298.62
2019-02-08T11:14:44.709Z,98298.14
2019-02-08T11:18:03.256Z,98276.16
2019-02-08T11:20:35.280Z,98284.02
2019-02-08T11:23:07.265Z,98278.11
2019-02-08T11:25:39.308Z,98273.08
2019-02-08T11:28:11.306Z,98270.64
2019-02-08T11:30:43.338Z,98259.63
2019-02-08T11:33:15.386Z,98254.63
2019-02-08T11:35:47.509Z,98248.05
2019-02-08T11:38:19.489Z,98250.09
2019-02-08T11:40:51.552Z,98237.92
2019-02-08T11:43:23.545Z,98236.75
2019-02-08T11:45:55.552Z,98241.57
2019-02-08T11:48:27.559Z,98229.34
2019-02-08T11:50:59.650Z,98225.73
2019-02-08T11:53:31.704Z,98222.05
2019-02-08T11:56:04.370Z,98223.82
2019-02-08T11:58:36.465Z,98223.82
2019-02-08T12:01:08.512Z,98220.94
2019-02-08T12:03:40.609Z,98223.11
2019-02-08T12:06:12.601Z,98219.95
2019-02-08T12:08:44.622Z,98193.15
2019-02-08T12:11:16.678Z,98203.53
2019-02-08T12:13:48.701Z,98202.10
2019-02-08T12:16:20.757Z,98187.05
2019-02-08T12:18:52.804Z,98187.05
2019-02-08T12:21:24.845Z,98180.08
2019-02-08T12:23:56.934Z,98189.41
2019-02-08T12:26:28.930Z,98191.06
2019-02-08T12:29:00.957Z,98175.45
2019-02-08T12:31:32.950Z,98180.56
2019-02-08T12:34:05.428Z,98166.52
2019-02-08T12:36:37.435Z,98169.17
2019-02-08T12:39:10.513Z,98166.20
2019-02-08T12:41:43.645Z,98159.45
2019-02-08T12:44:15.710Z,98142.84
2019-02-08T12:46:47.684Z,98142.84
2019-02-08T12:49:19.741Z,98145.30
2019-02-08T12:51:51.802Z,98134.80
2019-02-08T12:54:24.097Z,98134.80
2019-02-08T12:56:56.146Z,98130.48
2019-02-08T12:59:28.189Z,98128.78
2019-02-08T13:02:00.225Z,98125.95
2019-02-08T13:04:32.246Z,98115.61
2019-02-08T13:07:04.353Z,98118.08
2019-02-08T13:09:36.387Z,98110.30
2019-02-08T13:12:08.374Z,98107.99
2019-02-08T13:14:40.428Z,98093.55
2019-02-08T13:17:12.496Z,98092.00
2019-02-08T13:19:44.531Z,98092.00
2019-02-08T13:22:16.575Z,98097.49
2019-02-08T13:24:48.639Z,98086.97
2019-02-08T13:27:20.696Z,98082.77
2019-02-08T13:29:52.709Z,98081.05
2019-02-08T13:32:24.762Z,98071.34
2019-02-08T13:34:56.834Z,98068.62
2019-02-08T13:37:28.862Z,98068.62
2019-02-08T13:40:00.926Z,98060.88
2019-02-08T13:42:32.953Z,98062.98
2019-02-08T13:45:05.323Z,98063.61
2019-02-08T13:47:37.623Z,98058.23
2019-02-08T13:50:12.808Z,98053.39
2019-02-08T13:52:44.845Z,98044.47
2019-02-08T13:55:18.034Z,98040.41
2019-02-08T13:57:50.098Z,98034.54
2019-02-08T14:00:25.206Z,98037.73
2019-02-08T14:02:57.312Z,98031.03
2019-02-08T14:05:29.970Z,98037.45
2019-02-08T14:08:01.979Z,98037.13
2019-02-08T14:10:34.023Z,98024.42
2019-02-08T14:13:09.363Z,98031.69
2019-02-08T14:15:41.398Z,98026.32
2019-02-08T14:18:13.417Z,98028.84
2019-02-08T14:20:45.427Z,98027.48
2019-02-08T14:23:17.467Z,98028.84
2019-02-08T14:25:49.480Z,98019.20
2019-02-08T14:28:21.664Z,98017.86
2019-02-08T14:30:54.811Z,98012.75
2019-02-08T14:33:26.866Z,98015.92
2019-02-08T14:35:58.910Z,98002.64
2019-02-08T14:38:30.968Z,98001.18
2019-02-08T14:41:04.325Z,97994.13
2019-02-08T14:43:36.370Z,97982.02
2019-02-08T14:46:08.388Z,97978.89
2019-02-08T14:48:40.446Z,97987.27
2019-02-08T14:51:12.495Z,97985.01
2019-02-08T14:53:44.530Z,97977.20
2019-02-08T14:56:16.644Z,97973.98
2019-02-08T14:58:48.736Z,97977.81
2019-02-08T15:01:20.740Z,97972.38
2019-02-08T15:03:52.799Z,97974.08
2019-02-08T15:06:24.921Z,97972.19
2019-02-08T15:08:57.012Z,97967.52
2019-02-08T15:11:29.135Z,97960.63
2019-02-08T15:14:01.263Z,97962.91
2019-02-08T15:16:33.283Z,97961.72
2019-02-08T15:19:05.415Z,97959.30
2019-02-08T15:21:37.430Z,97958.60
2019-02-08T15:24:09.512Z,97959.21
2019-02-08T15:26:42.807Z,97951.83
2019-02-08T15:29:15.011Z,97949.54
2019-02-08T15:31:47.000Z,97950.19
2019-02-08T15:34:19.063Z,97941.46
2019-02-08T15:36:51.363Z,97940.19
2019-02-08T15:39:23.555Z,97934.11
2019-02-08T15:41:55.579Z,97929.41
2019-02-08T15:44:27.636Z,97926.67
2019-02-08T15:46:59.659Z,97924.91
2019-02-08T15:49:31.818Z,97924.94
2019-02-08T15:52:04.018Z,97922.46
2019-02-08T15:54:36.630Z,97918.45
2019-02-08T15:57:08.705Z,97915.59
2019-02-08T15:59:40.718Z,97913.85
2019-02-08T16:02:12.786Z,97918.45
2019-02-08T16:04:44.948Z,97911.88
2019-02-08T16:07:16.945Z,97914.23
2019-02-08T16:09:49.037Z,97906.09
2019-02-08T16:12:22.390Z,97898.53
2019-02-08T16:14:54.461Z,97890.69
2019-02-08T16:17:26.526Z,97885.97
2019-02-08T16:19:58.762Z,97889.30
2019-02-08T16:22:30.791Z,97893.33
2019-02-08T16:25:04.275Z,97892.93
2019-02-08T16:27:39.859Z,97892.92
2019-02-08T16:30:14.208Z,97890.44
2019-02-08T16:32:46.262Z,97897.34
2019-02-08T16:35:19.913Z,97894.52
2019-02-08T16:37:52.798Z,97900.05
2019-02-08T16:40:26.240Z,97897.41
2019-02-08T16:42:58.502Z,97892.18
2019-02-08T16:45:32.189Z,97887.46
2019-02-08T16:48:06.973Z,97886.70
2019-02-08T16:50:39.475Z,97887.58
2019-02-08T16:53:11.968Z,97888.69
2019-02-08T16:55:43.991Z,97882.09
2019-02-08T16:58:16.010Z,97884.29
2019-02-08T17:00:48.035Z,97883.72
2019-02-08T17:03:20.093Z,97884.81
2019-02-08T17:05:52.248Z,97876.67
2019-02-08T17:08:24.312Z,97888.94
2019-02-08T17:10:56.306Z,97883.88
2019-02-08T17:13:28.373Z,97882.37
2019-02-08T17:16:00.571Z,97877.00
2019-02-08T17:18:33.789Z,97873.57
2019-02-08T17:21:05.820Z,97882.50
2019-02-08T17:23:39.648Z,97885.33
2019-02-08T17:26:11.774Z,97873.20
2019-02-08T17:28:43.830Z,97873.77
2019-02-08T17:31:15.838Z,97867.67
2019-02-08T17:33:48.995Z,97875.94
2019-02-08T17:36:21.067Z,97868.85
2019-02-08T17:38:53.971Z,97872.95
2019-02-08T17:41:25.997Z,97874.29
2019-02-08T17:43:58.231Z,97866.67
2019-02-08T17:46:30.265Z,97871.88
2019-02-08T17:49:02.327Z,97872.07
2019-02-08T17:51:34.376Z,97865.69
2019-02-08T17:54:06.450Z,97861.56
2019-02-08T17:56:38.546Z,97865.23
2019-02-08T17:59:10.600Z,97863.58
2019-02-08T18:01:42.807Z,97865.55
2019-02-08T18:04:14.871Z,97873.18
2019-02-08T18:06:46.875Z,97872.99
2019-02-08T18:09:18.950Z,97859.15
2019-02-08T18:11:52.277Z,97861.95
2019-02-08T18:14:24.549Z,97864.03
2019-02-08T18:16:56.768Z,97863.16
2019-02-08T18:19:28.783Z,97855.95
2019-02-08T18:22:01.737Z,97856.44
2019-02-08T18:24:33.743Z,97854.42
2019-02-08T18:27:05.794Z,97846.60
2019-02-08T18:29:37.826Z,97845.89
2019-02-08T18:32:09.910Z,97849.58
2019-02-08T18:34:41.927Z,97851.98
2019-02-08T18:37:13.962Z,97855.08
2019-02-08T18:39:45.988Z,97855.33
2019-02-08T18:42:18.079Z,97852.68
2019-02-08T18:44:50.110Z,97856.29
2019-02-08T18:47:22.162Z,97843.63
2019-02-08T18:49:54.197Z,97850.27
2019-02-08T18:52:26.252Z,97848.51
2019-02-08T18:54:58.284Z,97843.44
2019-02-08T18:57:30.327Z,97837.84
2019-02-08T19:00:02.538Z,97839.41
2019-02-08T19:02:34.628Z,97839.91
2019-02-08T19:05:07.453Z,97836.40
2019-02-08T19:07:39.520Z,97837.14
2019-02-08T19:10:13.696Z,97830.86
2019-02-08T19:12:45.834Z,97827.17
2019-02-08T19:15:18.974Z,97817.23
2019-02-08T19:17:51.162Z,97820.50
2019-02-08T19:20:23.538Z,97819.91
2019-02-08T19:22:55.660Z,97823.80
2019-02-08T19:25:29.596Z,97822.68
2019-02-08T19:28:01.631Z,97822.33
2019-02-08T19:30:34.887Z,97818.28
2019-02-08T19:33:06.986Z,97813.35
2019-02-08T19:35:39.119Z,97805.52
2019-02-08T19:38:11.229Z,97811.97
2019-02-08T19:40:44.407Z,97803.50
2019-02-08T19:43:16.611Z,97813.22
2019-02-08T19:45:48.582Z,97810.84
2019-02-08T19:48:20.890Z,97811.72
2019-02-08T19:50:54.588Z,97807.16
2019-02-08T19:53:26.701Z,97800.59
2019-02-08T19:55:58.741Z,97803.23
2019-02-08T19:58:34.512Z,97807.64
2019-02-08T20:01:04.876Z,97798.83
2019-02-08T20:03:36.949Z,97790.11
2019-02-08T20:06:08.993Z,97782.66
2019-02-08T20:08:41.105Z,97782.37
2019-02-08T20:11:13.167Z,97783.78
2019-02-08T20:13:45.230Z,97774.53
2019-02-08T20:16:17.364Z,97774.53
2019-02-08T20:18:49.412Z,97765.68
2019-02-08T20:21:21.506Z,97759.73
2019-02-08T20:23:53.531Z,97754.44
2019-02-08T20:26:25.603Z,97744.45
2019-02-08T20:28:57.671Z,97745.22
2019-02-08T20:31:29.697Z,97751.03
2019-02-08T20:34:01.751Z,97738.89
2019-02-08T20:36:33.878Z,97737.75
2019-02-08T20:39:07.389Z,97742.92
2019-02-08T20:41:39.474Z,97742.42
2019-02-08T20:44:11.552Z,97737.88
2019-02-08T20:46:43.694Z,97738.01
2019-02-08T20:49:15.728Z,97735.83
2019-02-08T20:51:47.879Z,97728.63
2019-02-08T20:54:19.919Z,97729.50
2019-02-08T20:56:58.705Z,97725.48
2019-02-08T20:59:25.961Z,97727.59
2019-02-08T21:01:58.076Z,97724.43
2019-02-08T21:04:30.143Z,97724.89
2019-02-08T21:07:02.328Z,97722.67
2019-02-08T21:09:34.382Z,97716.34
2019-02-08T21:12:06.424Z,97711.80
2019-02-08T21:14:38.443Z,97705.09
2019-02-08T21:17:10.538Z,97695.29
2019-02-08T21:19:42.582Z,97704.25
2019-02-08T21:22:14.697Z,97701.73
2019-02-08T21:24:46.846Z,97702.23
2019-02-08T21:27:18.897Z,97702.77
2019-02-08T21:29:52.114Z,97696.70
2019-02-08T21:32:24.285Z,97695.83
2019-02-08T21:34:56.321Z,97692.44
2019-02-08T21:37:28.368Z,97691.55
2019-02-08T21:40:00.443Z,97692.02
2019-02-08T21:42:32.440Z,97684.71
2019-02-08T21:45:07.863Z,97680.78
2019-02-08T21:47:40.795Z,97674.11
2019-02-08T21:50:14.894Z,97678.25
2019-02-08T21:52:47.005Z,97671.42
2019-02-08T21:55:19.144Z,97667.38
2019-02-08T21:57:51.218Z,97657.56
2019-02-08T22:00:27.963Z,97645.83
2019-02-08T22:03:01.101Z,97642.92
2019-02-08T22:05:44.589Z,97632.56
2019-02-08T22:08:16.614Z,97636.47
2019-02-08T22:10:48.607Z,97633.09
2019-02-08T22:13:20.707Z,97636.88
2019-02-08T22:15:53.416Z,97631.81
2019-02-08T22:18:25.423Z,97629.78
2019-02-08T22:20:57.427Z,97627.26
2019-02-08T22:23:29.509Z,97633.55
2019-02-08T22:26:01.472Z,97631.81
2019-02-08T22:28:33.529Z,97627.98
2019-02-08T22:31:05.678Z,97623.84
2019-02-08T22:33:37.769Z,97623.55
2019-02-08T22:36:09.768Z,97618.87
2019-02-08T22:38:41.784Z,97618.34
2019-02-08T22:41:13.806Z,97615.06
2019-02-08T22:43:45.859Z,97612.56
2019-02-08T22:46:17.873Z,97607.90
2019-02-08T22:48:49.889Z,97609.55
2019-02-08T22:51:21.968Z,97602.22
2019-02-08T22:53:53.951Z,97605.01
2019-02-08T22:56:25.960Z,97611.42
2019-02-08T22:58:59.550Z,97603.98
2019-02-08T23:01:35.508Z,97598.55
2019-02-08T23:04:07.805Z,97587.30
2019-02-08T23:06:44.936Z,97589.06
2019-02-08T23:09:21.037Z,97576.84
2019-02-08T23:11:53.063Z,97581.52
2019-02-08T23:14:25.119Z,97583.05
2019-02-08T23:16:57.093Z,97579.76
2019-02-08T23:19:29.086Z,97593.64
2019-02-08T23:22:01.088Z,97595.66
2019-02-08T23:24:33.076Z,97597.83
2019-02-08T23:27:05.089Z,97600.70
2019-02-08T23:29:37.071Z,97597.28
2019-02-08T23:32:09.130Z,97595.52
2019-02-08T23:34:41.201Z,97606.20
2019-02-08T23:37:13.213Z,97605.20
2019-02-08T23:39:45.313Z,97603.86
2019-02-08T23:42:17.318Z,97608.11
2019-02-08T23:44:49.331Z,97607.16
2019-02-08T23:47:21.336Z,97591.32
2019-02-08T23:49:53.352Z,97600.72
2019-02-08T23:52:25.437Z,97605.25
2019-02-08T23:54:57.477Z,97603.50
2019-02-08T23:57:29.465Z,97600.33
